Time;durP1;ratioP1;P1;durP2;ratioP2;P2;SDS_P1;SDS_P2;PMS_P1;PMS_P2;Temp;Humidity;BMP_temperature;BMP_pressure;BME280_temperature;BME280_humidity;BME280_pressure;Samples;Min_cycle;Max_cycle;Signal;HPM_P1;HPM_P2
2022/04/28 00:04:41;;;;;;;19.67;10.35;;;9.90;99.90;;;;;;6759195;88;20199;-80
2022/04/28 00:14:43;;;;;;;18.85;9.55;;;9.70;99.90;;;;;;6757212;88;20962;-81
2022/04/28 00:24:45;;;;;;;14.43;9.40;;;10.00;99.90;;;;;;6741413;88;20218;-80
2022/04/28 00:34:46;;;;;;;17.27;10.38;;;9.40;99.90;;;;;;6738642;88;20184;-81
2022/04/28 00:44:47;;;;;;;15.18;10.38;;;9.10;99.90;;;;;;6748879;88;20205;-80
2022/04/28 00:54:50;;;;;;;17.77;10.70;;;9.10;99.90;;;;;;6757777;88;20200;-80
2022/04/28 01:04:51;;;;;;;16.12;10.93;;;9.00;99.90;;;;;;6756863;88;20274;-81
2022/04/28 01:14:52;;;;;;;20.50;12.40;;;9.00;99.90;;;;;;6761590;88;20208;-83
2022/04/28 01:24:52;;;;;;;19.60;12.13;;;8.90;99.90;;;;;;6762011;88;20194;-80
2022/04/28 01:34:53;;;;;;;22.35;13.27;;;8.70;99.90;;;;;;6760703;88;20164;-81
2022/04/28 01:44:54;;;;;;;21.40;13.27;;;8.50;99.90;;;;;;6760889;88;20331;-82
2022/04/28 01:54:57;;;;;;;23.45;13.00;;;8.30;99.90;;;;;;6759454;88;20217;-81
2022/04/28 02:04:58;;;;;;;26.00;14.32;;;8.40;99.90;;;;;;6756056;88;20179;-81
2022/04/28 02:14:59;;;;;;;23.73;14.43;;;8.30;99.90;;;;;;6756608;88;20201;-81
2022/04/28 02:25:00;;;;;;;25.80;14.73;;;8.00;99.90;;;;;;6758403;88;20849;-80
2022/04/28 02:35:00;;;;;;;26.17;14.70;;;8.10;99.90;;;;;;6758314;88;20213;-81
2022/04/28 02:45:01;;;;;;;25.08;14.45;;;7.90;99.90;;;;;;6755415;88;20168;-81
2022/04/28 02:55:22;;;;;;;28.70;15.35;;;7.80;99.90;;;;;;6724787;77;20266;-79
2022/04/28 03:05:23;;;;;;;25.45;14.25;;;7.70;99.90;;;;;;6653450;88;21121;-78
2022/04/28 03:15:24;;;;;;;25.58;13.88;;;7.60;99.90;;;;;;6636130;89;20184;-78
2022/04/28 03:25:25;;;;;;;22.23;12.95;;;7.60;99.90;;;;;;6642061;89;20185;-78
2022/04/28 03:35:26;;;;;;;27.13;13.85;;;7.70;99.90;;;;;;6638745;89;20264;-77
2022/04/28 03:45:27;;;;;;;26.35;14.00;;;7.50;99.90;;;;;;6656731;88;20199;-78
2022/04/28 03:55:27;;;;;;;25.37;14.18;;;7.30;99.90;;;;;;6644093;88;20260;-78
2022/04/28 04:05:28;;;;;;;24.63;14.18;;;7.10;99.90;;;;;;6657027;89;20756;-78
2022/04/28 04:15:28;;;;;;;23.55;13.10;;;6.90;99.90;;;;;;6658781;88;20215;-79
2022/04/28 04:25:29;;;;;;;25.45;13.62;;;6.70;99.90;;;;;;6660749;88;20191;-79
2022/04/28 04:35:29;;;;;;;25.17;13.40;;;6.80;99.90;;;;;;6657462;89;20209;-77
2022/04/28 04:45:30;;;;;;;23.12;12.50;;;6.70;99.90;;;;;;6656900;89;20200;-78
2022/04/28 04:55:31;;;;;;;23.83;13.40;;;6.80;99.90;;;;;;6654122;89;20362;-77
2022/04/28 05:05:32;;;;;;;23.80;12.70;;;6.80;99.90;;;;;;6654461;88;20204;-78
2022/04/28 05:15:32;;;;;;;23.08;12.50;;;6.80;99.90;;;;;;6654261;88;20237;-78
2022/04/28 05:25:33;;;;;;;22.73;12.68;;;6.90;99.90;;;;;;6653878;89;20192;-78
2022/04/28 05:35:37;;;;;;;22.50;12.55;;;7.10;99.90;;;;;;6654205;89;20717;-78
2022/04/28 05:45:45;;;;;;;23.75;12.95;;;7.40;99.90;;;;;;6654332;88;20706;-78
2022/04/28 05:55:46;;;;;;;21.10;12.68;;;7.90;99.90;;;;;;6654996;88;20188;-80
2022/04/28 06:05:46;;;;;;;22.62;11.93;;;8.20;99.90;;;;;;6656497;89;23440;-81
2022/04/28 06:15:47;;;;;;;23.67;11.40;;;8.30;99.90;;;;;;6672935;89;20203;-78
2022/04/28 06:25:47;;;;;;;20.42;11.63;;;8.40;99.90;;;;;;6656554;89;20681;-78
2022/04/28 06:35:48;;;;;;;18.87;10.50;;;8.80;99.90;;;;;;6658282;89;20205;-80
2022/04/28 06:56:08;;;;;;;20.58;11.68;;;10.00;99.90;;;;;;6675569;89;20527;-79
2022/04/28 07:06:09;;;;;;;17.42;10.50;;;10.10;99.90;;;;;;6679484;89;20273;-80
2022/04/28 07:16:09;;;;;;;20.27;11.10;;;11.00;99.90;;;;;;6678930;89;20212;-79
2022/04/28 07:26:10;;;;;;;21.00;11.23;;;10.90;99.90;;;;;;6679454;89;20288;-81
2022/04/28 07:36:12;;;;;;;19.87;10.70;;;11.70;99.90;;;;;;6681020;89;20223;-81
2022/04/28 07:46:13;;;;;;;18.65;11.07;;;12.20;99.90;;;;;;6681026;89;20209;-80
2022/04/28 07:56:18;;;;;;;22.33;12.25;;;13.20;99.90;;;;;;6673799;89;20196;-80
2022/04/28 08:06:19;;;;;;;19.42;11.55;;;13.50;99.90;;;;;;6674544;89;20191;-80
2022/04/28 08:16:20;;;;;;;20.25;12.27;;;15.00;99.90;;;;;;6674667;89;20206;-80
2022/04/28 08:26:21;;;;;;;21.48;12.98;;;15.30;99.90;;;;;;6676493;89;20204;-80
2022/04/28 08:36:21;;;;;;;22.45;13.38;;;15.80;99.90;;;;;;6676751;89;20240;-80
2022/04/28 09:07:44;;;;;;;19.27;12.75;;;18.30;99.70;;;;;;6684536;88;20258;-79
2022/04/28 09:17:45;;;;;;;19.62;11.63;;;19.00;97.80;;;;;;6672513;89;20193;-81
2022/04/28 09:27:50;;;;;;;16.47;11.67;;;19.40;95.10;;;;;;6674626;88;20233;-80
2022/04/28 09:37:50;;;;;;;20.70;13.05;;;20.30;94.10;;;;;;6673791;88;20211;-81
2022/04/28 09:48:03;;;;;;;18.85;12.48;;;20.60;92.60;;;;;;6674640;88;20639;-82
2022/04/28 09:58:08;;;;;;;22.08;13.62;;;21.10;91.20;;;;;;6674516;88;20200;-79
2022/04/28 10:08:09;;;;;;;24.37;13.98;;;21.90;90.00;;;;;;6653177;89;20205;-81
2022/04/28 10:18:12;;;;;;;18.60;12.85;;;21.70;89.20;;;;;;6654098;89;20337;-80
2022/04/28 10:39:04;;;;;;;19.00;13.50;;;22.40;84.50;;;;;;6715753;88;20712;-82
2022/04/28 10:49:05;;;;;;;19.45;13.18;;;22.70;83.00;;;;;;6719688;88;20786;-78
2022/04/28 10:59:25;;;;;;;18.85;14.05;;;23.10;78.30;;;;;;6669675;88;20806;-80
2022/04/28 11:09:37;;;;;;;22.17;13.32;;;23.40;76.30;;;;;;6688601;88;20242;-81
2022/04/28 11:19:39;;;;;;;21.50;13.10;;;23.80;76.60;;;;;;6688433;88;20247;-80
2022/04/28 11:29:42;;;;;;;16.15;11.65;;;24.00;76.00;;;;;;6674496;88;20209;-81
2022/04/28 11:39:46;;;;;;;20.27;12.90;;;24.10;76.70;;;;;;6674793;88;20822;-79
2022/04/28 11:49:49;;;;;;;22.58;11.88;;;24.90;74.50;;;;;;6674035;89;20220;-81
2022/04/28 11:59:51;;;;;;;15.88;11.02;;;24.80;72.80;;;;;;6661381;88;20194;-81
2022/04/28 12:20:11;;;;;;;14.82;10.63;;;25.00;69.60;;;;;;6645589;88;20161;-81
2022/04/28 12:30:15;;;;;;;16.87;10.30;;;24.70;70.10;;;;;;6646225;88;20196;-80
2022/04/28 12:40:19;;;;;;;14.80;9.07;;;25.50;67.60;;;;;;6644345;88;20260;-81
2022/04/28 12:50:24;;;;;;;14.85;9.90;;;25.10;68.20;;;;;;6645246;88;20195;-81
2022/04/28 13:00:25;;;;;;;15.23;9.63;;;25.30;66.70;;;;;;6660858;89;20227;-80
2022/04/28 13:10:26;;;;;;;14.02;10.15;;;25.80;65.90;;;;;;6668672;89;20188;-80
2022/04/28 13:20:26;;;;;;;13.45;9.90;;;26.20;64.10;;;;;;6654888;88;20200;-81
2022/04/28 13:30:27;;;;;;;15.27;10.00;;;25.90;63.30;;;;;;6642761;88;20230;-80
2022/04/28 13:40:27;;;;;;;13.15;9.73;;;24.70;63.50;;;;;;6633229;88;20259;-80
2022/04/28 13:50:28;;;;;;;15.40;9.60;;;24.60;64.50;;;;;;6625788;89;20399;-80
2022/04/28 14:00:28;;;;;;;14.57;9.27;;;24.40;63.80;;;;;;6630429;89;20196;-81
2022/04/28 14:10:29;;;;;;;15.43;8.97;;;24.60;64.20;;;;;;6644200;89;20204;-81
2022/04/28 14:20:30;;;;;;;14.25;8.38;;;24.50;63.40;;;;;;6646250;89;20591;-80
2022/04/28 14:30:30;;;;;;;15.85;8.30;;;24.30;63.20;;;;;;6652802;89;20632;-80
2022/04/28 14:40:31;;;;;;;16.73;9.38;;;24.40;63.30;;;;;;6656168;89;20208;-81
2022/04/28 15:00:35;;;;;;;14.10;7.97;;;24.20;62.60;;;;;;6746144;88;20230;-80
2022/04/28 15:10:36;;;;;;;12.88;7.72;;;24.30;61.60;;;;;;6747695;88;20584;-80
2022/04/28 15:20:37;;;;;;;12.47;7.80;;;23.90;62.20;;;;;;6739599;88;20275;-80
2022/04/28 15:30:38;;;;;;;11.68;7.62;;;23.80;62.40;;;;;;6742275;88;20636;-81
2022/04/28 15:40:39;;;;;;;14.15;8.05;;;23.90;61.50;;;;;;6743731;88;20649;-81
2022/04/28 15:50:39;;;;;;;15.05;7.35;;;23.70;61.00;;;;;;6744539;88;20200;-80
2022/04/28 16:00:41;;;;;;;11.37;7.30;;;23.30;61.80;;;;;;6741064;88;20208;-80
2022/04/28 16:10:42;;;;;;;13.27;7.20;;;23.00;61.30;;;;;;6741851;88;20279;-79
2022/04/28 16:20:43;;;;;;;11.75;6.65;;;22.70;60.70;;;;;;6743765;88;20245;-80
2022/04/28 16:30:44;;;;;;;12.15;6.95;;;22.50;61.10;;;;;;6741967;88;20215;-80
2022/04/28 16:40:44;;;;;;;10.52;6.80;;;22.30;60.30;;;;;;6741684;88;20647;-81
2022/04/28 16:50:45;;;;;;;9.73;6.60;;;22.10;60.80;;;;;;6746966;88;20240;-81
2022/04/28 17:00:45;;;;;;;13.32;6.78;;;21.80;59.90;;;;;;6747793;88;20240;-81
2022/04/28 17:10:46;;;;;;;8.52;5.43;;;21.40;59.50;;;;;;6741088;88;20248;-80
2022/04/28 17:20:47;;;;;;;9.60;6.10;;;21.20;60.40;;;;;;6748484;88;20206;-81
2022/04/28 17:30:48;;;;;;;9.20;5.60;;;21.00;58.50;;;;;;6746790;88;20681;-81
2022/04/28 17:40:48;;;;;;;9.25;5.40;;;21.00;58.90;;;;;;6749781;88;20176;-80
2022/04/28 17:50:49;;;;;;;9.82;5.55;;;21.30;59.20;;;;;;6747694;88;20270;-78
2022/04/28 18:00:49;;;;;;;9.48;5.55;;;20.00;59.10;;;;;;6750889;88;20154;-80
2022/04/28 18:10:50;;;;;;;12.60;5.72;;;19.00;60.60;;;;;;6746991;88;20208;-80
2022/04/28 18:20:51;;;;;;;8.30;5.10;;;18.20;61.70;;;;;;6737818;88;20317;-79
2022/04/28 18:30:51;;;;;;;8.13;4.40;;;17.80;64.10;;;;;;6739335;88;20539;-81
2022/04/28 18:51:12;;;;;;;13.57;5.43;;;16.80;67.50;;;;;;6739324;88;20173;-78
2022/04/28 19:01:12;;;;;;;9.88;5.03;;;16.30;69.20;;;;;;6746467;88;20146;-82
2022/04/28 19:11:13;;;;;;;10.93;5.35;;;15.90;70.70;;;;;;6760768;88;20205;-81
2022/04/28 19:21:16;;;;;;;11.45;5.43;;;15.50;72.60;;;;;;6766695;88;20178;-80
2022/04/28 19:31:16;;;;;;;11.38;5.75;;;15.20;74.70;;;;;;6766417;88;20220;-82
2022/04/28 19:41:17;;;;;;;13.90;7.10;;;14.90;76.30;;;;;;6766379;88;20164;-81
2022/04/28 19:51:18;;;;;;;13.75;6.57;;;14.70;77.20;;;;;;6761975;88;20823;-79
2022/04/28 20:01:19;;;;;;;10.32;6.03;;;14.50;79.70;;;;;;6753720;88;20166;-80
2022/04/28 20:11:21;;;;;;;13.38;6.75;;;14.30;80.90;;;;;;6744715;88;20165;-80
2022/04/28 20:21:22;;;;;;;13.27;6.80;;;14.00;83.30;;;;;;6747268;88;20204;-80
2022/04/28 20:31:23;;;;;;;15.35;6.22;;;13.80;85.30;;;;;;6734352;88;20205;-81
2022/04/28 20:41:24;;;;;;;14.27;6.40;;;13.60;89.00;;;;;;6728751;88;20203;-80
2022/04/28 21:01:28;;;;;;;13.93;6.53;;;13.20;92.50;;;;;;6736751;88;20214;-80
2022/04/28 21:11:28;;;;;;;11.93;6.28;;;13.00;94.20;;;;;;6726986;88;20222;-79
2022/04/28 21:21:29;;;;;;;12.98;6.45;;;12.80;96.40;;;;;;6719585;88;20199;-78
2022/04/28 21:31:30;;;;;;;12.25;6.78;;;12.60;98.50;;;;;;6718811;88;20186;-78
2022/04/28 21:41:30;;;;;;;18.35;7.15;;;12.40;99.90;;;;;;6709528;88;20198;-79
2022/04/28 21:51:31;;;;;;;15.82;6.28;;;12.30;99.90;;;;;;6692992;88;20195;-79
2022/04/28 22:01:31;;;;;;;14.93;6.18;;;12.10;99.90;;;;;;6710732;88;20215;-80
2022/04/28 22:11:32;;;;;;;12.43;6.32;;;12.10;99.90;;;;;;6713309;88;20614;-79
2022/04/28 22:21:32;;;;;;;13.98;6.68;;;11.90;99.90;;;;;;6710035;88;20806;-79
2022/04/28 22:31:34;;;;;;;13.55;6.25;;;11.80;99.90;;;;;;6710173;88;20633;-79
2022/04/28 22:41:38;;;;;;;13.55;6.90;;;11.60;99.90;;;;;;6710268;88;20193;-79
2022/04/28 22:51:39;;;;;;;9.98;6.18;;;11.70;99.90;;;;;;6711965;88;20215;-79
2022/04/28 23:01:39;;;;;;;12.50;6.45;;;11.80;99.90;;;;;;6709486;88;20241;-80
2022/04/28 23:11:40;;;;;;;11.85;6.45;;;11.50;99.90;;;;;;6710276;88;20202;-80
2022/04/28 23:21:40;;;;;;;12.45;6.18;;;11.50;99.90;;;;;;6722438;88;20712;-79
2022/04/28 23:31:41;;;;;;;13.68;6.05;;;11.20;99.90;;;;;;6709968;88;20694;-80
2022/04/28 23:52:02;;;;;;;12.52;6.22;;;10.80;99.90;;;;;;6709158;88;20526;-79
